createdAt,value
2022-10-05T00:01:30.176Z,101620.94
2022-10-05T00:04:12.402Z,101625.53
2022-10-05T00:06:39.429Z,101616.31
2022-10-05T00:09:20.905Z,101602.97
2022-10-05T00:11:49.244Z,101608.06
2022-10-05T00:14:30.376Z,101605.28
2022-10-05T00:16:57.912Z,101623.44
2022-10-05T00:19:38.361Z,101614.34
2022-10-05T00:22:21.838Z,101610.94
2022-10-05T00:24:55.477Z,101586.50
2022-10-05T00:27:32.250Z,101600.63
2022-10-05T00:30:10.677Z,101596.31
2022-10-05T00:32:37.645Z,101598.47
2022-10-05T00:35:05.081Z,101592.31
2022-10-05T00:37:32.193Z,101582.38
2022-10-05T00:39:59.316Z,101582.56
2022-10-05T00:42:59.561Z,101591.38
2022-10-05T00:45:39.975Z,101588.75
2022-10-05T00:48:30.752Z,101572.34
2022-10-05T00:51:06.335Z,101574.97
2022-10-05T00:53:46.263Z,101559.66
2022-10-05T00:56:46.187Z,101551.91
2022-10-05T00:59:41.011Z,101554.13
2022-10-05T01:02:35.875Z,101562.56
2022-10-05T01:05:35.918Z,101555.34
2022-10-05T01:08:33.638Z,101559.06
2022-10-05T01:11:58.793Z,101560.91
2022-10-05T01:14:40.636Z,101563.66
2022-10-05T01:17:59.942Z,101566.59
2022-10-05T01:20:42.619Z,101559.63
2022-10-05T01:23:30.348Z,101555.03
2022-10-05T01:26:11.968Z,101548.91
2022-10-05T01:28:48.108Z,101551.50
2022-10-05T01:31:40.526Z,101553.88
2022-10-05T01:34:17.265Z,101544.63
2022-10-05T01:37:04.750Z,101543.63
2022-10-05T01:40:12.780Z,101541.81
2022-10-05T01:42:50.706Z,101527.69
2022-10-05T01:45:33.865Z,101531.22
2022-10-05T01:48:24.410Z,101519.22
2022-10-05T01:51:20.915Z,101505.69
2022-10-05T01:54:11.935Z,101505.47
2022-10-05T01:57:01.724Z,101516.28
2022-10-05T01:59:40.474Z,101506.84
2022-10-05T02:02:14.700Z,101516.47
2022-10-05T02:05:02.101Z,101507.94
2022-10-05T02:07:42.199Z,101506.59
2022-10-05T02:10:17.382Z,101494.22
2022-10-05T02:12:46.228Z,101481.69
2022-10-05T02:15:18.977Z,101482.22
2022-10-05T02:17:51.318Z,101485.56
2022-10-05T02:20:26.403Z,101489.53
2022-10-05T02:23:11.493Z,101487.53
2022-10-05T02:25:44.358Z,101491.25
2022-10-05T02:28:32.358Z,101478.78
2022-10-05T02:31:11.357Z,101474.06
2022-10-05T02:33:38.623Z,101463.31
2022-10-05T02:36:22.386Z,101470.06
2022-10-05T02:39:28.129Z,101455.84
2022-10-05T02:42:29.816Z,101456.88
2022-10-05T02:45:12.605Z,101451.06
2022-10-05T02:48:03.695Z,101445.47
2022-10-05T02:51:14.575Z,101439.59
2022-10-05T02:53:48.766Z,101443.25
2022-10-05T02:56:55.900Z,101430.56
2022-10-05T02:59:40.290Z,101444.59
2022-10-05T03:02:24.629Z,101434.53
2022-10-05T03:05:18.966Z,101442.13
2022-10-05T03:08:01.908Z,101439.75
2022-10-05T03:10:46.336Z,101429.84
2022-10-05T03:13:27.600Z,101431.19
2022-10-05T03:16:07.917Z,101435.88
2022-10-05T03:19:36.951Z,101420.78
2022-10-05T03:22:49.933Z,101423.69
2022-10-05T03:26:25.268Z,101425.94
2022-10-05T03:29:34.866Z,101414.69
2022-10-05T03:32:25.618Z,101419.47
2022-10-05T03:35:04.438Z,101419.38
2022-10-05T03:38:18.299Z,101418.50
2022-10-05T03:41:13.028Z,101414.22
2022-10-05T03:44:03.893Z,101409.66
2022-10-05T03:47:01.111Z,101409.41
2022-10-05T03:49:42.729Z,101408.75
2022-10-05T03:52:18.990Z,101407.50
2022-10-05T03:54:56.593Z,101405.78
2022-10-05T03:57:28.111Z,101391.09
2022-10-05T04:00:07.653Z,101394.44
2022-10-05T04:03:04.506Z,101386.16
2022-10-05T04:05:38.652Z,101393.09
2022-10-05T04:08:17.112Z,101390.00
2022-10-05T04:10:52.358Z,101395.47
2022-10-05T04:13:34.366Z,101385.25
2022-10-05T04:16:20.008Z,101397.47
2022-10-05T04:19:26.915Z,101384.47
2022-10-05T04:22:03.700Z,101378.56
2022-10-05T04:24:53.630Z,101372.19
2022-10-05T04:27:53.056Z,101374.28
2022-10-05T04:30:22.333Z,101369.19
2022-10-05T04:32:57.637Z,101366.97
2022-10-05T04:36:11.410Z,101371.25
2022-10-05T04:39:08.458Z,101368.41
2022-10-05T04:41:56.112Z,101367.00
2022-10-05T04:44:57.093Z,101376.22
2022-10-05T04:48:07.256Z,101360.44
2022-10-05T04:51:21.029Z,101360.56
2022-10-05T04:54:25.106Z,101365.44
2022-10-05T04:57:02.464Z,101364.75
2022-10-05T05:00:00.808Z,101363.44
2022-10-05T05:02:39.806Z,101363.06
2022-10-05T05:05:34.089Z,101357.69
2022-10-05T05:08:36.648Z,101365.94
2022-10-05T05:11:38.695Z,101346.88
2022-10-05T05:14:38.568Z,101355.69
2022-10-05T05:17:38.847Z,101349.00
2022-10-05T05:20:51.712Z,101350.88
2022-10-05T05:23:32.910Z,101352.16
2022-10-05T05:26:26.307Z,101344.41
2022-10-05T05:29:17.317Z,101347.78
2022-10-05T05:32:15.035Z,101347.94
2022-10-05T05:35:16.306Z,101335.44
2022-10-05T05:38:04.232Z,101334.84
2022-10-05T05:40:36.738Z,101336.75
2022-10-05T05:43:28.893Z,101334.00
2022-10-05T05:47:02.813Z,101337.66
2022-10-05T05:50:02.916Z,101332.25
2022-10-05T05:52:50.387Z,101330.91
2022-10-05T05:55:29.715Z,101330.94
2022-10-05T05:58:16.949Z,101331.56
2022-10-05T06:01:00.548Z,101334.16
2022-10-05T06:04:02.191Z,101334.22
2022-10-05T06:06:36.468Z,101339.06
2022-10-05T06:09:33.400Z,101346.72
2022-10-05T06:12:08.626Z,101345.44
2022-10-05T06:14:43.723Z,101343.97
2022-10-05T06:17:24.893Z,101347.41
2022-10-05T06:19:58.978Z,101347.41
2022-10-05T06:22:44.364Z,101351.59
2022-10-05T06:25:42.050Z,101356.16
2022-10-05T06:28:12.496Z,101359.66
2022-10-05T06:31:02.072Z,101355.53
2022-10-05T06:33:48.625Z,101355.59
2022-10-05T06:36:23.658Z,101351.84
2022-10-05T06:39:36.568Z,101355.91
2022-10-05T06:43:00.467Z,101364.81
2022-10-05T06:46:14.848Z,101350.84
2022-10-05T06:49:24.174Z,101355.47
2022-10-05T06:52:39.317Z,101367.00
2022-10-05T06:55:27.012Z,101368.25
2022-10-05T06:58:06.462Z,101371.81
2022-10-05T07:00:44.695Z,101366.81
2022-10-05T07:03:35.514Z,101360.31
2022-10-05T07:06:43.683Z,101363.06
2022-10-05T07:09:45.461Z,101364.31
2022-10-05T07:12:36.991Z,101358.72
2022-10-05T07:15:23.903Z,101362.13
2022-10-05T07:18:35.473Z,101360.78
2022-10-05T07:21:10.166Z,101361.25
2022-10-05T07:24:08.374Z,101371.06
2022-10-05T07:26:46.787Z,101363.19
2022-10-05T07:29:38.313Z,101358.53
2022-10-05T07:32:52.805Z,101369.19
2022-10-05T07:36:18.852Z,101360.16
2022-10-05T07:39:59.097Z,101364.91
2022-10-05T07:43:06.297Z,101365.03
2022-10-05T07:45:57.082Z,101368.78
2022-10-05T07:48:41.362Z,101351.50
2022-10-05T07:51:41.085Z,101359.03
2022-10-05T07:54:57.982Z,101350.47
2022-10-05T07:57:43.773Z,101354.69
2022-10-05T08:00:26.784Z,101354.31
2022-10-05T08:02:58.550Z,101363.34
2022-10-05T08:05:32.467Z,101356.53
2022-10-05T08:08:34.601Z,101348.44
2022-10-05T08:11:27.377Z,101342.66
2022-10-05T08:14:26.282Z,101337.75
2022-10-05T08:16:58.117Z,101340.56
2022-10-05T08:19:43.564Z,101330.78
2022-10-05T08:22:20.562Z,101338.97
2022-10-05T08:25:00.384Z,101334.72
2022-10-05T08:28:18.555Z,101329.91
2022-10-05T08:31:09.351Z,101343.44
2022-10-05T08:33:50.900Z,101336.31
2022-10-05T08:36:28.298Z,101332.44
2022-10-05T08:38:59.352Z,101336.78
2022-10-05T08:41:52.741Z,101321.81
2022-10-05T08:45:11.028Z,101325.94
2022-10-05T08:47:57.513Z,101314.78
2022-10-05T08:51:01.142Z,101320.13
2022-10-05T08:54:02.155Z,101317.00
2022-10-05T08:56:29.166Z,101322.31
2022-10-05T08:59:41.217Z,101304.28
2022-10-05T09:02:54.866Z,101317.06
2022-10-05T09:05:59.126Z,101316.00
2022-10-05T09:08:51.940Z,101305.31
2022-10-05T09:11:35.902Z,101312.84
2022-10-05T09:15:13.682Z,101306.53
2022-10-05T09:18:30.628Z,101307.75
2022-10-05T09:21:36.056Z,101311.66
2022-10-05T09:24:15.147Z,101304.09
2022-10-05T09:26:56.465Z,101306.81
2022-10-05T09:30:08.294Z,101298.50
2022-10-05T09:33:13.713Z,101297.59
2022-10-05T09:35:58.477Z,101294.69
2022-10-05T09:39:32.104Z,101278.81
2022-10-05T09:42:42.155Z,101273.31
2022-10-05T09:45:29.359Z,101276.28
2022-10-05T09:48:25.951Z,101284.66
2022-10-05T09:51:32.083Z,101287.16
2022-10-05T09:55:08.231Z,101277.94
2022-10-05T09:57:55.828Z,101275.50
2022-10-05T10:01:15.435Z,101276.38
2022-10-05T10:04:07.109Z,101276.50
2022-10-05T10:06:55.058Z,101283.97
2022-10-05T10:10:29.308Z,101273.41
2022-10-05T10:13:17.232Z,101264.75
2022-10-05T10:16:53.672Z,101262.59
2022-10-05T10:20:01.652Z,101255.97
2022-10-05T10:23:19.927Z,101244.69
2022-10-05T10:26:43.821Z,101265.47
2022-10-05T10:29:53.233Z,101260.81
2022-10-05T10:33:25.683Z,101252.06
2022-10-05T10:36:26.240Z,101251.47
2022-10-05T10:39:12.093Z,101251.47
2022-10-05T10:42:04.049Z,101251.53
2022-10-05T10:45:05.189Z,101246.75
2022-10-05T10:47:46.111Z,101247.16
2022-10-05T10:50:42.855Z,101236.13
2022-10-05T10:53:37.394Z,101231.97
2022-10-05T10:56:58.177Z,101229.47
2022-10-05T11:00:08.026Z,101232.75
2022-10-05T11:03:02.509Z,101245.03
2022-10-05T11:05:36.403Z,101231.03
2022-10-05T11:08:46.926Z,101236.16
2022-10-05T11:11:13.746Z,101237.59
2022-10-05T11:14:04.508Z,101228.34
2022-10-05T11:17:12.179Z,101244.53
2022-10-05T11:20:07.054Z,101250.38
2022-10-05T11:23:17.317Z,101236.94
2022-10-05T11:26:06.362Z,101242.91
2022-10-05T11:29:01.092Z,101231.19
2022-10-05T11:31:42.064Z,101221.75
2022-10-05T11:34:40.095Z,101230.09
2022-10-05T11:37:36.336Z,101225.47
2022-10-05T11:40:33.487Z,101229.19
2022-10-05T11:43:24.358Z,101230.50
2022-10-05T11:45:51.190Z,101219.88
2022-10-05T11:48:36.018Z,101226.53
2022-10-05T11:51:14.570Z,101220.91
2022-10-05T11:54:02.707Z,101229.53
2022-10-05T11:56:36.324Z,101230.66
2022-10-05T11:59:14.260Z,101230.88
2022-10-05T12:01:47.443Z,101224.41
2022-10-05T12:04:41.364Z,101237.56
2022-10-05T12:07:27.390Z,101234.66
2022-10-05T12:10:21.318Z,101221.63
2022-10-05T12:13:11.896Z,101219.38
2022-10-05T12:16:03.014Z,101219.13
2022-10-05T12:18:34.018Z,101216.91
2022-10-05T12:21:13.280Z,101233.13
2022-10-05T12:23:54.832Z,101225.50
2022-10-05T12:26:44.720Z,101229.13
2022-10-05T12:29:47.967Z,101235.56
2022-10-05T12:33:02.035Z,101238.66
2022-10-05T12:35:48.934Z,101237.75
2022-10-05T12:38:39.863Z,101234.03
2022-10-05T12:41:26.914Z,101246.44
2022-10-05T12:44:16.609Z,101232.69
2022-10-05T12:46:52.288Z,101240.25
2022-10-05T12:49:43.041Z,101242.53
2022-10-05T12:52:38.685Z,101236.56
2022-10-05T12:55:57.720Z,101238.66
2022-10-05T12:59:14.586Z,101242.13
2022-10-05T13:02:25.758Z,101229.66
2022-10-05T13:05:28.021Z,101242.97
2022-10-05T13:08:17.755Z,101238.22
2022-10-05T13:10:50.307Z,101240.28
2022-10-05T13:13:59.501Z,101244.63
2022-10-05T13:17:04.379Z,101240.47
2022-10-05T13:19:48.186Z,101249.78
2022-10-05T13:22:39.741Z,101247.13
2022-10-05T13:25:47.682Z,101251.75
2022-10-05T13:28:23.335Z,101254.44
2022-10-05T13:31:01.025Z,101256.13
2022-10-05T13:33:41.499Z,101259.94
2022-10-05T13:36:36.020Z,101264.00
2022-10-05T13:39:14.886Z,101259.06
2022-10-05T13:41:54.522Z,101263.69
2022-10-05T13:44:59.173Z,101264.44
2022-10-05T13:47:31.848Z,101271.75
2022-10-05T13:50:23.596Z,101256.88
2022-10-05T13:53:41.877Z,101259.91
2022-10-05T13:56:32.217Z,101257.38
2022-10-05T13:59:26.858Z,101260.56
2022-10-05T14:02:09.504Z,101254.84
2022-10-05T14:04:53.181Z,101241.44
2022-10-05T14:07:50.455Z,101231.81
2022-10-05T14:10:38.899Z,101242.56
2022-10-05T14:13:26.770Z,101243.19
2022-10-05T14:16:07.733Z,101238.91
2022-10-05T14:18:37.512Z,101233.47
2022-10-05T14:21:13.740Z,101243.47
2022-10-05T14:23:41.178Z,101245.00
2022-10-05T14:26:40.701Z,101239.78
2022-10-05T14:29:17.516Z,101240.88
2022-10-05T14:31:57.070Z,101247.06
2022-10-05T14:34:59.115Z,101250.50
2022-10-05T14:37:34.635Z,101251.84
2022-10-05T14:40:38.305Z,101237.06
2022-10-05T14:43:14.367Z,101240.84
2022-10-05T14:45:57.627Z,101250.72
2022-10-05T14:48:29.844Z,101253.63
2022-10-05T14:51:02.220Z,101242.44
2022-10-05T14:53:56.817Z,101257.16
2022-10-05T14:56:46.389Z,101245.41
2022-10-05T15:00:04.146Z,101243.59
2022-10-05T15:03:35.564Z,101251.19
2022-10-05T15:06:05.585Z,101258.44
2022-10-05T15:08:49.214Z,101256.31
2022-10-05T15:11:42.537Z,101257.06
2022-10-05T15:14:34.899Z,101263.41
2022-10-05T15:17:06.786Z,101264.81
2022-10-05T15:19:59.445Z,101261.22
2022-10-05T15:22:42.260Z,101262.66
2022-10-05T15:25:21.537Z,101257.16
2022-10-05T15:28:36.413Z,101255.06
2022-10-05T15:31:06.699Z,101259.41
2022-10-05T15:34:01.073Z,101274.94
2022-10-05T15:37:19.956Z,101262.13
2022-10-05T15:39:55.343Z,101274.28
2022-10-05T15:42:38.541Z,101269.25
2022-10-05T15:45:52.952Z,101276.22
2022-10-05T15:48:35.818Z,101266.81
2022-10-05T15:51:31.883Z,101274.03
2022-10-05T15:54:35.878Z,101274.22
2022-10-05T15:57:21.886Z,101279.03
2022-10-05T16:00:18.799Z,101274.75
2022-10-05T16:03:37.275Z,101274.53
2022-10-05T16:06:35.724Z,101273.75
2022-10-05T16:09:41.132Z,101279.03
2022-10-05T16:12:38.885Z,101287.69
2022-10-05T16:15:34.707Z,101283.56
2022-10-05T16:18:58.575Z,101283.22
2022-10-05T16:22:17.393Z,101284.03
2022-10-05T16:25:03.068Z,101277.44
2022-10-05T16:28:11.937Z,101285.69
2022-10-05T16:30:58.817Z,101297.38
2022-10-05T16:33:58.219Z,101285.19
2022-10-05T16:36:47.388Z,101293.78
2022-10-05T16:39:56.008Z,101291.47
2022-10-05T16:43:13.340Z,101296.94
2022-10-05T16:46:27.828Z,101307.63
2022-10-05T16:49:44.737Z,101304.44
2022-10-05T16:52:18.921Z,101307.34
2022-10-05T16:54:52.583Z,101306.88
2022-10-05T16:57:39.260Z,101306.75
2022-10-05T17:00:44.498Z,101317.97
2022-10-05T17:03:27.300Z,101309.78
2022-10-05T17:06:12.322Z,101324.00
2022-10-05T17:09:35.914Z,101321.47
2022-10-05T17:12:46.493Z,101333.38
2022-10-05T17:15:44.286Z,101331.94
2022-10-05T17:18:29.340Z,101318.91
2022-10-05T17:21:15.062Z,101334.78
2022-10-05T17:23:58.422Z,101349.53
2022-10-05T17:26:55.577Z,101344.09
2022-10-05T17:29:47.718Z,101346.53
2022-10-05T17:32:17.366Z,101356.28
2022-10-05T17:35:18.475Z,101357.81
2022-10-05T17:38:49.651Z,101371.94
2022-10-05T17:41:25.888Z,101375.97
2022-10-05T17:44:20.206Z,101377.63
2022-10-05T17:46:59.395Z,101381.47
2022-10-05T17:50:08.218Z,101388.50
2022-10-05T17:52:55.296Z,101380.66
2022-10-05T17:55:45.911Z,101403.09
2022-10-05T17:58:27.550Z,101399.06
2022-10-05T18:01:14.884Z,101401.72
2022-10-05T18:03:50.399Z,101403.75
2022-10-05T18:06:26.309Z,101404.91
2022-10-05T18:09:16.979Z,101421.84
2022-10-05T18:11:49.236Z,101427.69
2022-10-05T18:14:24.861Z,101425.25
2022-10-05T18:17:04.296Z,101437.34
2022-10-05T18:19:33.307Z,101471.47
2022-10-05T18:22:03.379Z,101516.66
2022-10-05T18:25:03.766Z,101518.25
2022-10-05T18:28:11.883Z,101534.91
2022-10-05T18:31:09.025Z,101532.34
2022-10-05T18:34:02.455Z,101515.56
2022-10-05T18:37:07.371Z,101529.56
2022-10-05T18:40:16.213Z,101527.25
2022-10-05T18:43:04.210Z,101541.63
2022-10-05T18:45:55.826Z,101544.38
2022-10-05T18:48:29.749Z,101529.81
2022-10-05T18:51:12.636Z,101549.13
2022-10-05T18:53:47.342Z,101561.41
2022-10-05T18:56:29.597Z,101567.22
2022-10-05T18:59:18.491Z,101579.59
2022-10-05T19:01:56.749Z,101579.81
2022-10-05T19:04:36.766Z,101592.19
2022-10-05T19:07:04.807Z,101606.53
2022-10-05T19:10:08.734Z,101601.00
2022-10-05T19:12:53.382Z,101610.13
2022-10-05T19:15:41.539Z,101618.31
2022-10-05T19:18:30.355Z,101617.56
2022-10-05T19:21:50.031Z,101635.19
2022-10-05T19:24:42.631Z,101637.34
2022-10-05T19:27:37.605Z,101640.00
2022-10-05T19:30:23.999Z,101648.63
2022-10-05T19:33:07.089Z,101653.31
2022-10-05T19:35:58.572Z,101664.53
2022-10-05T19:39:00.351Z,101676.50
2022-10-05T19:42:24.941Z,101670.69
2022-10-05T19:45:24.534Z,101682.00
2022-10-05T19:48:14.903Z,101681.34
2022-10-05T19:51:00.751Z,101683.44
2022-10-05T19:53:37.828Z,101685.22
2022-10-05T19:56:33.611Z,101693.88
2022-10-05T19:59:17.790Z,101682.91
2022-10-05T20:01:57.062Z,101700.03
2022-10-05T20:04:40.811Z,101699.53
2022-10-05T20:07:15.239Z,101710.13
2022-10-05T20:10:17.558Z,101728.66
2022-10-05T20:13:04.903Z,101734.06
2022-10-05T20:15:53.732Z,101733.00
2022-10-05T20:19:01.415Z,101740.53
2022-10-05T20:21:50.240Z,101749.03
2022-10-05T20:24:25.601Z,101740.66
2022-10-05T20:27:12.623Z,101748.47
2022-10-05T20:29:44.513Z,101758.44
2022-10-05T20:32:15.233Z,101760.47
2022-10-05T20:34:45.159Z,101760.66
2022-10-05T20:37:18.036Z,101772.84
2022-10-05T20:39:45.341Z,101785.19
2022-10-05T20:42:12.364Z,101785.81
2022-10-05T20:44:39.337Z,101792.06
2022-10-05T20:47:11.782Z,101798.41
2022-10-05T20:49:41.210Z,101806.63
2022-10-05T20:52:10.905Z,101815.50
2022-10-05T20:54:39.173Z,101823.72
2022-10-05T20:57:06.819Z,101836.72
2022-10-05T20:59:35.436Z,101847.75
2022-10-05T21:02:03.968Z,101839.72
2022-10-05T21:04:40.201Z,101847.22
2022-10-05T21:07:07.673Z,101857.97
2022-10-05T21:09:34.733Z,101862.25
2022-10-05T21:12:01.618Z,101859.41
2022-10-05T21:14:32.936Z,101854.56
2022-10-05T21:17:00.357Z,101868.25
2022-10-05T21:19:27.325Z,101878.13
2022-10-05T21:21:54.488Z,101892.66
2022-10-05T21:24:21.445Z,101886.66
2022-10-05T21:26:48.402Z,101897.47
2022-10-05T21:29:15.531Z,101897.00
2022-10-05T21:31:42.522Z,101903.25
2022-10-05T21:34:09.581Z,101914.03
2022-10-05T21:36:36.562Z,101914.44
2022-10-05T21:39:03.664Z,101920.09
2022-10-05T21:41:30.639Z,101926.13
2022-10-05T21:43:57.537Z,101934.00
2022-10-05T21:46:28.140Z,101942.47
2022-10-05T21:48:55.898Z,101945.94
2022-10-05T21:51:25.323Z,101958.28
2022-10-05T21:54:03.620Z,101956.06
2022-10-05T21:56:37.734Z,101958.66
2022-10-05T21:59:09.644Z,101955.75
2022-10-05T22:01:36.664Z,101965.72
2022-10-05T22:04:05.509Z,101967.53
2022-10-05T22:06:33.242Z,101979.63
2022-10-05T22:09:00.509Z,101978.19
2022-10-05T22:11:29.133Z,101989.13
2022-10-05T22:14:02.118Z,102011.13
2022-10-05T22:16:32.907Z,102008.84
2022-10-05T22:19:04.613Z,102007.34
2022-10-05T22:21:37.825Z,102003.78
2022-10-05T22:24:05.164Z,102010.06
2022-10-05T22:26:32.663Z,102024.72
2022-10-05T22:29:01.744Z,102014.47
2022-10-05T22:31:29.039Z,102025.38
2022-10-05T22:33:56.090Z,102034.63
2022-10-05T22:36:23.248Z,102049.50
2022-10-05T22:38:50.179Z,102041.59
2022-10-05T22:41:18.546Z,102044.22
2022-10-05T22:43:49.959Z,102053.63
2022-10-05T22:46:17.493Z,102054.53
2022-10-05T22:48:44.661Z,102068.91
2022-10-05T22:51:11.906Z,102044.66
2022-10-05T22:53:38.908Z,102060.88
2022-10-05T22:56:13.345Z,102054.78
2022-10-05T22:58:42.195Z,102061.72
2022-10-05T23:01:15.278Z,102056.84
2022-10-05T23:03:42.706Z,102065.78
2022-10-05T23:06:15.945Z,102072.53
2022-10-05T23:08:43.586Z,102065.75
2022-10-05T23:11:14.982Z,102070.06
2022-10-05T23:13:42.316Z,102079.94
2022-10-05T23:16:16.318Z,102076.84
2022-10-05T23:18:44.189Z,102088.06
2022-10-05T23:21:11.993Z,102096.72
2022-10-05T23:23:42.243Z,102105.84
2022-10-05T23:26:11.228Z,102106.16
2022-10-05T23:28:40.746Z,102110.47
2022-10-05T23:31:08.746Z,102113.38
2022-10-05T23:33:35.916Z,102120.41
2022-10-05T23:36:07.574Z,102114.94
2022-10-05T23:38:35.936Z,102125.38
2022-10-05T23:41:04.616Z,102130.50
2022-10-05T23:43:33.319Z,102131.00
2022-10-05T23:46:01.572Z,102134.44
2022-10-05T23:48:30.073Z,102130.09
2022-10-05T23:50:58.180Z,102144.56
2022-10-05T23:53:25.348Z,102142.41
2022-10-05T23:55:53.732Z,102156.34
2022-10-05T23:58:21.831Z,102160.97
